Terminal Aerodrome Forecast
Issued by NWS Shreveport, LA

Home | Current Version | Previous Version | Text Only | Print | Product List | Glossary On
Versions: 1 2 3 4 5 6 7 8 9 10 11 12 13 14 15 16
000
FTUS44 KSHV 230534
TAFELD
TAF
KELD 230534Z 2306/2406 27005KT P6SM BKN040
      TEMPO 2310/2314 OVC015
     FM231400 27007KT P6SM OVC015
      TEMPO 2314/2318 BKN030
     FM231800 28009KT P6SM OVC035
     FM240000 31005KT P6SM OVC040=

USA.gov is the U.S. government's official web portal to all federal, state and local government web resources and services.